NEODyS-2

Near Earth Objects - Dynamic Site
NEODyS ∴ Observatories ∴ Site 691 ∴ Obs & residuals
Contact »
691  ▹ 
OBSERVATIONS AND RESIDUALS

691-Steward Observatory, Kitt Peak-Spacewatch

Detections | Residuals | Detections & Residuals

[1-200] [201-400] [401-600] [601-800] [801-1000] [1001-1200] [1201-1400] [1401-1600] [1601-1800] [1801-2000] [2001-2200] [2201-2400] [2401-2600] [2601-2800] [2801-3000] [3001-3200] [3201-3400] [3401-3600] [3601-3800] [3801-4000] [4001-4200] [4201-4400] [4401-4600] [4601-4800] [4801-5000] [5001-5200] [5201-5400] [5401-5600] [5601-5800] [5801-6000] [6001-6200] [6201-6400] [6401-6600] [6601-6800] [6801-7000] [7001-7200] [7201-7400] [7401-7600] [7601-7800] [7801-8000] [8001-8200] [8201-8400] [8401-8600] [8601-8800] [8801-9000] [9001-9200] [9201-9400] [9401-9600] [9601-9800] [9801-10000] [10001-10200] [10201-10400] [10401-10600] [10601-10800] [10801-11000] [11001-11200] [11201-11400] [11401-11600] [11601-11800] [11801-12000] [12001-12200] [12201-12400] [12401-12600] [12601-12800] [12801-13000] [13001-13200] [13201-13400] [13401-13600] [13601-13800] [13801-14000] [14001-14200] [14201-14400] [14401-14600] [14601-14800] [14801-15000] [15001-15200] [15201-15400] [15401-15600] [15601-15800] [15801-16000] [16001-16200] [16201-16400] [16401-16600] [16601-16800] [16801-17000] [17001-17200] [17201-17400] [17401-17600] [17601-17800] [17801-18000] [18001-18200] [18201-18400] [18401-18600] [18601-18800] [18801-19000] [19001-19200] [19201-19400] [19401-19600] [19601-19800] [19801-20000] [20001-20200] [20201-20400] [20401-20600] [20601-20800] [20801-21000] [21001-21200] [21201-21400] [21401-21600] [21601-21800] [21801-22000] [22001-22200] [22201-22400] [22401-22600] [22601-22800] [22801-23000] [23001-23200] [23201-23400] [23401-23600] [23601-23800] [23801-24000] [24001-24200] [24201-24400] [24401-24600] [24601-24800] [24801-25000] [25001-25200] [25201-25400] [25401-25600] [25601-25800] [25801-26000] [26001-26200] [26201-26400] [26401-26600] [26601-26800] [26801-27000] [27001-27200] [27201-27400] [27401-27600] [27601-27800] [27801-28000] [28001-28200] [28201-28400] [28401-28600] [28601-28800] [28801-29000] [29001-29200] [29201-29400] [29401-29600] [29601-29800] [29801-30000] [30001-30200] [30201-30400] [30401-30600] [30601-30800] [30801-31000] [31001-31200] [31201-31400] [31401-31600] [31601-31800] [31801-32000] [32001-32200] [32201-32400] [32401-32600] [32601-32800] [32801-33000] [33001-33200] [33201-33400] [33401-33600] [33601-33800] [33801-34000] [34001-34200] [34201-34400] [34401-34600] [34601-34800] [34801-35000] [35001-35200] [35201-35400] [35401-35600] [35601-35800] [35801-36000] [36001-36200] [36201-36400] [36401-36600] [36601-36800] [36801-37000] [37001-37200] [37201-37400] [37401-37600] [37601-37800] [37801-38000] [38001-38200] [38201-38400] [38401-38600] [38601-38800] [38801-39000] [39001-39200] [39201-39400] [39401-39600] [39601-39800] [39801-40000] [40001-40200] [40201-40400] [40401-40600] [40601-40800] [40801-41000] [41001-41200] [41201-41400] [41401-41600] [41601-41800] [41801-42000] [42001-42200] [42201-42400] [42401-42600] [42601-42800] [42801-43000] [43001-43200] [43201-43400] [43401-43600] [43601-43800] [43801-44000] [44001-44200] [44201-44400] [44401-44600] [44601-44800] [44801-45000] [45001-45200] [45201-45400] [45401-45600] [45601-45800] [45801-46000] [46001-46200] [46201-46400] [46401-46600] [46601-46800] [46801-47000] [47001-47200] [47201-47400] [47401-47600] [47601-47800] [47801-48000] [48001-48200] [48201-48400] [48401-48600] [48601-48800] [48801-49000] [49001-49200] [49201-49400] [49401-49600] [49601-49800] [49801-50000] [50001-50200] [50201-50388]

Designation T Tech N Date Right Ascension Declination Apparent Magnitude Star Catalog Site code χ Used A Used M
yr-mo-day precision hr:min:sec precision rms F bias residual deg min sec precision rms F bias residual mag/col rms residual
2016UZ25 O C 2016-11-03.23640 1.000E-05 02:02:52.460 1.500E-01 0.500 F -0.312 -0.256 +15° 29' 03.40" 1.000E-01 0.500 F 0.247 0.035 19.5 V 0.70 0.31 o 691 0.52 Yes Yes
2016UY56 O C 2016-11-05.10529 1.000E-05 02:22:04.180 1.500E-01 0.500 F -0.302 -0.547 +18° 18' 15.50" 1.000E-01 0.500 F 0.244 -0.238 19.8 V 0.70 0.42 o 691 1.20 Yes Yes
2016UN36 O C 2016-11-05.11043 1.000E-05 00:39:22.520 1.500E-01 0.500 F -0.115 0.186 +25° 18' 06.20" 1.000E-01 0.500 F 0.279 0.074 20.6 V 0.70 0.01 o 691 0.40 Yes Yes
2016UY56 O C 2016-11-05.11284 1.000E-05 02:22:02.440 1.500E-01 0.500 F -0.302 0.015 +18° 18' 12.30" 1.000E-01 0.500 F 0.244 -0.008 19.6 V 0.70 0.22 o 691 0.04 Yes Yes
2016UN36 O C 2016-11-05.11800 1.000E-05 00:39:23.040 1.500E-01 0.500 F -0.115 -0.342 +25° 18' 13.40" 1.000E-01 0.500 F 0.279 0.152 20.5 V 0.70 -0.09 o 691 0.75 Yes Yes
2016UY56 O C 2016-11-05.12041 1.000E-05 02:22:00.620 1.500E-01 0.500 F -0.302 -0.305 +18° 18' 08.50" 1.000E-01 0.500 F 0.244 -0.337 19.6 V 0.70 0.22 o 691 0.91 Yes Yes
2016UN36 O C 2016-11-05.12556 1.000E-05 00:39:23.610 1.500E-01 0.500 F -0.115 -0.093 +25° 18' 20.00" 1.000E-01 0.500 F 0.279 -0.303 20.2 V 0.70 -0.39 o 691 0.64 Yes Yes
2016TX19 O C H 2016-11-05.13525 1.000E-05 01:59:50.950 1.500E-01 0.500 F -0.248 -0.037 +04° 38' 52.80" 1.000E-01 0.500 F 0.178 0.585 20.8 V 0.70 0.04 o 691 1.30 Yes Yes
2016TX19 O C H 2016-11-05.14217 1.000E-05 01:59:51.760 1.500E-01 0.500 F -0.248 -0.301 +04° 39' 15.90" 1.000E-01 0.500 F 0.178 0.014 20.7 V 0.70 -0.06 o 691 0.64 Yes Yes
2016UP41 O C H 2016-11-05.17051 1.000E-05 03:29:12.940 1.500E-01 0.500 F -0.139 -0.233 +28° 21' 37.90" 1.000E-01 0.500 F 0.286 0.477 20.6 V 0.70 0.18 o 691 1.07 Yes Yes
2016UP41 O C H 2016-11-05.17686 1.000E-05 03:29:11.880 1.500E-01 0.500 F -0.139 0.110 +28° 21' 30.10" 1.000E-01 0.500 F 0.286 -0.181 20.7 V 0.70 0.28 o 691 0.43 Yes Yes
2016UP41 O C H 2016-11-05.18327 1.000E-05 03:29:10.770 1.500E-01 0.500 F -0.139 -0.038 +28° 21' 23.10" 1.000E-01 0.500 F 0.286 0.041 o 691 0.11 Yes No
2016VH O C H 2016-11-05.19096 1.000E-05 02:40:25.410 1.500E-01 0.500 F -0.162 0.072 -04° 11' 45.20" 1.000E-01 0.500 F 0.257 0.168 20.2 V 0.70 0.13 o 691 0.37 Yes Yes
2016VH O C H 2016-11-05.19611 1.000E-05 02:40:29.190 1.500E-01 0.500 F -0.162 -1.326 -04° 11' 28.00" 1.000E-01 0.500 F 0.257 -0.876 20.4 V 0.70 0.33 o 691 3.15 No Yes
2016VH O C H 2016-11-05.20125 1.000E-05 02:40:32.990 1.500E-01 0.500 F -0.162 -2.100 -04° 11' 09.20" 1.000E-01 0.500 F 0.257 -0.288 20.5 V 0.70 0.43 o 691 4.20 No Yes
2009XZ1 O C H 2016-11-05.20704 1.000E-05 01:59:15.300 1.500E-01 0.500 F -0.440 0.191 -14° 06' 52.40" 1.000E-01 0.500 F 0.076 0.561 20.5 V 0.70 -0.16 o 691 1.20 Yes Yes
2016VO1 O C 2016-11-05.20932 1.000E-05 01:33:15.080 1.500E-01 0.500 F -0.361 -0.200 -00° 35' 34.30" 1.000E-01 0.500 F 0.167 -0.416 20.1 V 0.70 -0.80 o 691 0.94 Yes Yes
2009XZ1 O C H 2016-11-05.21401 1.000E-05 01:59:13.210 1.500E-01 0.500 F -0.440 -0.597 -14° 06' 46.60" 1.000E-01 0.500 F 0.076 -0.123 21.0 V 0.70 0.34 o 691 1.24 Yes Yes
2016VO1 O C 2016-11-05.21632 1.000E-05 01:33:13.900 1.500E-01 0.500 F -0.361 -0.560 -00° 35' 32.20" 1.000E-01 0.500 F 0.167 -1.094 20.6 V 0.70 -0.30 o 691 2.51 Yes Yes
2009XZ1 O C H 2016-11-05.22101 1.000E-05 01:59:11.390 1.500E-01 0.500 F -0.440 2.678 -14° 06' 40.40" 1.000E-01 0.500 F 0.076 -0.448 o 691 5.34 No No
2016VO1 O C 2016-11-05.22334 1.000E-05 01:33:12.770 1.500E-01 0.500 F -0.361 -0.117 -00° 35' 28.40" 1.000E-01 0.500 F 0.167 -0.081 20.6 V 0.70 -0.30 o 691 0.29 Yes Yes
2016TD55 O C 2016-11-05.39002 1.000E-05 04:47:57.850 1.500E-01 0.500 F -0.170 -0.216 +15° 17' 28.00" 1.000E-01 0.500 F 0.162 0.086 20.2 V 0.70 0.38 o 691 0.48 Yes Yes
2016LM1 O C 2016-11-05.40163 1.000E-05 04:59:46.690 1.500E-01 0.500 F -0.203 -0.016 +14° 25' 02.40" 1.000E-01 0.500 F 0.158 -0.149 20.2 V 0.70 -0.42 o 691 0.30 Yes Yes
2016TD55 O C 2016-11-05.40858 1.000E-05 04:48:00.730 1.500E-01 0.500 F -0.170 0.102 +15° 15' 56.20" 1.000E-01 0.500 F 0.162 0.057 20.1 V 0.70 0.28 o 691 0.24 Yes Yes
2016LM1 O C 2016-11-05.42019 1.000E-05 04:59:44.540 1.500E-01 0.500 F -0.203 -0.223 +14° 25' 19.40" 1.000E-01 0.500 F 0.158 0.089 20.4 V 0.70 -0.22 o 691 0.49 Yes Yes
2016TD55 O C 2016-11-05.42714 1.000E-05 04:48:03.560 1.500E-01 0.500 F -0.170 -0.333 +15° 14' 24.40" 1.000E-01 0.500 F 0.162 0.129 20.0 V 0.70 0.18 o 691 0.73 Yes Yes
2016LM1 O C 2016-11-05.43875 1.000E-05 04:59:42.400 1.500E-01 0.500 F -0.203 -0.305 +14° 25' 36.20" 1.000E-01 0.500 F 0.158 0.174 20.4 V 0.70 -0.22 o 691 0.71 Yes Yes
2016UX35 O C H 2016-11-06.08313 1.000E-05 00:45:49.520 1.500E-01 0.500 F -0.133 -1.077 +29° 44' 47.20" 1.000E-01 0.500 F 0.152 0.452 20.4 V 0.70 -0.32 o 691 2.47 Yes Yes
2016UA41 O C H 2016-11-06.08526 1.000E-05 01:16:50.190 1.500E-01 0.500 F -0.154 -0.335 +22° 49' 16.30" 1.000E-01 0.500 F 0.310 0.311 20.8 V 0.70 0.11 o 691 0.96 Yes Yes
2016UN36 O C 2016-11-06.08757 1.000E-05 00:41:07.550 1.500E-01 0.500 F -0.115 -0.315 +25° 31' 38.10" 1.000E-01 0.500 F 0.279 0.454 20.0 V 0.70 -0.55 o 691 1.11 Yes Yes
2016UX35 O C H 2016-11-06.08971 1.000E-05 00:45:47.920 1.500E-01 0.500 F -0.133 -0.302 +29° 45' 25.30" 1.000E-01 0.500 F 0.152 0.340 20.8 V 0.70 0.08 o 691 0.96 Yes Yes
2016UA41 O C H 2016-11-06.09186 1.000E-05 01:16:49.980 1.500E-01 0.500 F -0.154 0.906 +22° 49' 38.50" 1.000E-01 0.500 F 0.310 -1.057 o 691 2.92 Yes No
2016UN36 O C 2016-11-06.09419 1.000E-05 00:41:08.140 1.500E-01 0.500 F -0.115 -0.098 +25° 31' 44.10" 1.000E-01 0.500 F 0.279 -0.074 20.1 V 0.70 -0.45 o 691 0.25 Yes Yes
2016UA41 O C H 2016-11-06.09848 1.000E-05 01:16:49.590 1.500E-01 0.500 F -0.154 -0.233 +22° 50' 04.10" 1.000E-01 0.500 F 0.310 0.948 20.6 V 0.70 -0.10 o 691 2.04 Yes Yes
2016UN36 O C 2016-11-06.10077 1.000E-05 00:41:08.690 1.500E-01 0.500 F -0.210 -0.199 +25° 31' 50.70" 1.000E-01 0.500 F 0.262 0.095 20.2 V 0.70 -0.35 o 691 0.44 Yes Yes
2016UY56 O C 2016-11-06.10358 1.000E-05 02:18:08.080 1.500E-01 0.500 F -0.266 -0.229 +18° 07' 20.40" 1.000E-01 0.500 F 0.269 -0.096 19.0 V 0.70 -0.27 o 691 0.50 Yes Yes
2016LY47 O C H 2016-11-06.10814 1.000E-05 01:48:20.320 1.500E-01 0.500 F -0.355 -0.761 +19° 11' 55.30" 1.000E-01 0.500 F 0.353 -0.204 20.3 V 0.70 0.28 o 691 1.59 Yes Yes
2016UY56 O C 2016-11-06.11045 1.000E-05 02:18:06.220 1.500E-01 0.500 F -0.266 -0.035 +18° 07' 16.50" 1.000E-01 0.500 F 0.269 -0.068 19.1 V 0.70 -0.17 o 691 0.15 Yes Yes
2016LY47 O C H 2016-11-06.11505 1.000E-05 01:48:20.230 1.500E-01 0.500 F -0.355 -0.857 +19° 11' 49.90" 1.000E-01 0.500 F 0.353 -0.239 20.2 V 0.70 0.18 o 691 1.79 Yes Yes
2016UY56 O C 2016-11-06.11737 1.000E-05 02:18:04.310 1.500E-01 0.500 F -0.266 -0.188 +18° 07' 12.30" 1.000E-01 0.500 F 0.269 -0.280 19.0 V 0.70 -0.26 o 691 0.67 Yes Yes
2016LY47 O C H 2016-11-06.12195 1.000E-05 01:48:20.230 1.500E-01 0.500 F -0.355 0.340 +19° 11' 44.00" 1.000E-01 0.500 F 0.353 -0.778 o 691 1.70 Yes No
2016LX48 O C 2016-11-06.12436 1.000E-05 01:37:46.960 1.500E-01 0.500 F -0.141 0.086 +30° 30' 45.10" 1.000E-01 0.500 F 0.215 -0.189 18.6 V 0.70 -0.23 o 691 0.42 Yes Yes
2016LX48 O C 2016-11-06.13111 1.000E-05 01:37:47.160 1.500E-01 0.500 F -0.141 -0.194 +30° 30' 39.90" 1.000E-01 0.500 F 0.215 0.343 18.6 V 0.70 -0.23 o 691 0.79 Yes Yes
2016LX48 O C 2016-11-06.13789 1.000E-05 01:37:47.380 1.500E-01 0.500 F -0.141 -0.205 +30° 30' 33.80" 1.000E-01 0.500 F 0.215 0.013 18.7 V 0.70 -0.13 o 691 0.41 Yes Yes
2016VH O C H 2016-11-06.16736 1.000E-05 02:52:59.660 1.500E-01 0.500 F -0.287 2.211 -03° 16' 51.20" 1.000E-01 0.500 F 0.253 0.361 20.2 V 0.70 -0.04 o 691 4.43 No Yes
2016TC93 O C 2016-11-06.16935 1.000E-05 02:36:23.190 1.500E-01 0.500 F -0.307 0.080 +00° 51' 13.60" 1.000E-01 0.500 F 0.225 0.081 20.5 V 0.70 -0.10 o 691 0.23 Yes Yes
2016TX19 O C H 2016-11-06.17166 1.000E-05 02:02:08.880 1.500E-01 0.500 F -0.223 0.835 +05° 37' 33.40" 1.000E-01 0.500 F 0.219 0.244 o 691 1.86 Yes No
2016VH O C H 2016-11-06.17363 1.000E-05 02:53:03.590 1.500E-01 0.500 F -0.287 1.094 -03° 16' 31.70" 1.000E-01 0.500 F 0.253 0.581 20.1 V 0.70 -0.14 o 691 2.50 Yes Yes
2016TC93 O C 2016-11-06.17561 1.000E-05 02:36:23.770 1.500E-01 0.500 F -0.307 -0.383 +00° 51' 01.60" 1.000E-01 0.500 F 0.225 -0.070 20.7 V 0.70 0.10 o 691 0.80 Yes Yes
2016TX19 O C H 2016-11-06.17791 1.000E-05 02:02:09.530 1.500E-01 0.500 F -0.223 -0.410 +05° 37' 53.90" 1.000E-01 0.500 F 0.219 -0.538 o 691 1.48 Yes No
2016VH O C H 2016-11-06.17988 1.000E-05 02:53:07.340 1.500E-01 0.500 F -0.287 -2.196 -03° 16' 14.20" 1.000E-01 0.500 F 0.253 -1.135 20.4 V 0.70 0.16 o 691 4.90 No Yes
2016TC93 O C 2016-11-06.18183 1.000E-05 02:36:24.410 1.500E-01 0.500 F -0.307 0.148 +00° 50' 49.60" 1.000E-01 0.500 F 0.225 -0.297 20.6 V 0.70 0.00 o 691 0.69 Yes Yes
2016UH101 O C 2016-11-06.18758 1.000E-05 03:12:30.260 1.500E-01 0.500 F -0.373 -0.182 -08° 55' 21.00" 1.000E-01 0.500 F 0.088 0.030 20.2 V 0.70 0.23 o 691 0.37 Yes Yes
2016UH101 O C 2016-11-06.19406 1.000E-05 03:12:30.650 1.500E-01 0.500 F -0.373 -0.018 -08° 55' 06.80" 1.000E-01 0.500 F 0.088 0.032 20.0 V 0.70 0.03 o 691 0.07 Yes Yes
2016UH101 O C 2016-11-06.20059 1.000E-05 03:12:31.030 1.500E-01 0.500 F -0.373 0.013 -08° 54' 52.60" 1.000E-01 0.500 F 0.088 -0.079 20.1 V 0.70 0.13 o 691 0.16 Yes Yes
2004FW1 O C H 2016-11-06.20587 1.000E-05 04:49:05.890 1.500E-01 0.500 F -0.084 0.540 +01° 46' 15.90" 1.000E-01 0.500 F 0.248 -0.744 o 691 1.85 Yes No
2004FW1 O C H 2016-11-06.21217 1.000E-05 04:49:03.960 1.500E-01 0.500 F -0.084 -0.838 +01° 46' 12.20" 1.000E-01 0.500 F 0.248 0.190 o 691 1.73 Yes No
2004FW1 O C H 2016-11-06.21848 1.000E-05 04:49:02.060 1.500E-01 0.500 F -0.084 -1.702 +01° 46' 07.40" 1.000E-01 0.500 F 0.248 0.029 o 691 3.37 No No
2016TD18 O C H 2016-11-06.22602 1.000E-05 02:39:35.620 1.500E-01 0.500 F -0.361 0.671 -15° 39' 09.10" 1.000E-01 0.500 F 0.187 -1.021 o 691 2.47 Yes No
2016LB9 O C H 2016-11-06.23067 1.000E-05 02:56:46.960 1.500E-01 0.500 F -0.325 0.210 -29° 18' 45.10" 1.000E-01 0.500 F 0.357 -0.947 19.7 V 0.70 -0.17 o 691 2.11 Yes Yes
2016TD18 O C H 2016-11-06.23295 1.000E-05 02:39:36.310 1.500E-01 0.500 F -0.361 0.517 -15° 39' 23.60" 1.000E-01 0.500 F 0.187 -0.601 o 691 1.60 Yes No
2016LB9 O C H 2016-11-06.23759 1.000E-05 02:56:46.880 1.500E-01 0.500 F -0.325 -0.375 -29° 18' 18.40" 1.000E-01 0.500 F 0.357 -0.149 20.2 V 0.70 0.33 o 691 0.86 Yes Yes
2016TD18 O C H 2016-11-06.23991 1.000E-05 02:39:36.980 1.500E-01 0.500 F -0.361 0.068 -15° 39' 38.20" 1.000E-01 0.500 F 0.187 -0.242 20.7 V 0.70 0.21 o 691 0.51 Yes Yes
2016UB42 O C 2016-11-06.25011 1.000E-05 23:27:27.870 1.500E-01 0.500 F -0.226 -0.494 +14° 46' 12.60" 1.000E-01 0.500 F 0.163 0.270 20.6 V 0.70 0.20 o 691 1.14 Yes Yes
2016UB42 O C 2016-11-06.25606 1.000E-05 23:27:27.210 1.500E-01 0.500 F -0.226 -0.154 +14° 46' 33.10" 1.000E-01 0.500 F 0.163 0.147 20.5 V 0.70 0.10 o 691 0.43 Yes Yes
2016UB42 O C 2016-11-06.26201 1.000E-05 23:27:26.490 1.500E-01 0.500 F -0.226 -0.706 +14° 46' 53.20" 1.000E-01 0.500 F 0.163 -0.367 20.1 V 0.70 -0.30 o 691 1.61 Yes Yes
2016TY92 O C H 2016-11-06.27042 1.000E-05 00:38:17.620 1.500E-01 0.500 F -0.375 -0.132 -21° 25' 59.00" 1.000E-01 0.500 F 0.095 0.253 20.6 V 0.70 -0.34 o 691 0.57 Yes Yes
1997VN4 O C 2016-11-06.27249 1.000E-05 00:36:10.720 1.500E-01 0.500 F -0.444 -0.492 -07° 08' 45.50" 1.000E-01 0.500 F 0.222 0.202 20.1 V 0.70 -0.35 o 691 1.09 Yes Yes
2016TY92 O C H 2016-11-06.27705 1.000E-05 00:38:17.030 1.500E-01 0.500 F -0.375 -0.277 -21° 25' 57.30" 1.000E-01 0.500 F 0.095 -0.214 20.5 V 0.70 -0.44 o 691 0.71 Yes Yes
1997VN4 O C 2016-11-06.27912 1.000E-05 00:36:12.360 1.500E-01 0.500 F -0.444 0.715 -07° 08' 00.60" 1.000E-01 0.500 F 0.222 1.054 19.9 V 0.70 -0.55 o 691 2.60 Yes Yes
2016TY92 O C H 2016-11-06.28370 1.000E-05 00:38:16.420 1.500E-01 0.500 F -0.375 -0.687 -21° 25' 54.50" 1.000E-01 0.500 F 0.095 0.404 20.6 V 0.70 -0.34 o 691 1.60 Yes Yes
1997VN4 O C 2016-11-06.28577 1.000E-05 00:36:13.870 1.500E-01 0.500 F -0.444 -0.136 -07° 07' 17.60" 1.000E-01 0.500 F 0.222 -0.147 20.1 V 0.70 -0.35 o 691 0.41 Yes Yes
2016VJ2 O C H 2016-11-06.29117 1.000E-05 03:39:20.730 1.500E-01 0.500 F -0.302 -1.034 +15° 46' 05.30" 1.000E-01 0.500 F 0.203 -0.347 20.9 V 0.70 0.09 o 691 2.29 Yes Yes
2016VV1 O C 2016-11-06.29319 1.000E-05 03:39:51.320 1.500E-01 0.500 F -0.282 0.306 +02° 49' 58.00" 1.000E-01 0.500 F 0.119 -0.479 20.2 V 0.70 -0.27 o 691 1.14 Yes Yes
2016VJ2 O C H 2016-11-06.29680 1.000E-05 03:39:22.620 1.500E-01 0.500 F -0.302 -0.801 +15° 46' 26.70" 1.000E-01 0.500 F 0.203 -1.255 21.2 V 0.70 0.39 o 691 3.14 Yes Yes
2016VV1 O C 2016-11-06.29884 1.000E-05 03:39:50.150 1.500E-01 0.500 F -0.282 -0.399 +02° 50' 35.10" 1.000E-01 0.500 F 0.119 0.881 20.9 V 0.70 0.43 o 691 1.95 Yes Yes
2016VJ2 O C H 2016-11-06.30244 1.000E-05 03:39:24.800 1.500E-01 0.500 F -0.302 3.581 +15° 46' 53.60" 1.000E-01 0.500 F 0.203 3.314 21.0 V 0.70 0.19 o 691 9.31 No Yes
2016VV1 O C 2016-11-06.30445 1.000E-05 03:39:49.030 1.500E-01 0.500 F -0.282 -0.458 +02° 51' 09.90" 1.000E-01 0.500 F 0.119 0.202 20.0 V 0.70 -0.47 o 691 1.01 Yes Yes
2005SN25 O C 2016-11-06.31095 1.000E-05 01:53:04.770 1.500E-01 0.500 F -0.319 -0.339 -14° 23' 51.70" 1.000E-01 0.500 F 0.150 0.131 20.5 V 0.70 -0.19 o 691 0.73 Yes Yes
2009XZ1 O C 2016-11-06.31095 1.000E-05 01:54:10.840 1.500E-01 0.500 F -0.329 -0.465 -13° 49' 09.20" 1.000E-01 0.500 F 0.233 0.441 20.2 V 0.70 -0.53 o 691 1.30 Yes Yes
2005SN25 O C 2016-11-06.31709 1.000E-05 01:53:04.170 1.500E-01 0.500 F -0.319 0.004 -14° 23' 55.70" 1.000E-01 0.500 F 0.150 -0.139 20.5 V 0.70 -0.19 o 691 0.28 Yes Yes
2009XZ1 O C 2016-11-06.31709 1.000E-05 01:54:09.160 1.500E-01 0.500 F -0.329 -0.099 -13° 49' 03.40" 1.000E-01 0.500 F 0.233 0.143 20.5 V 0.70 -0.23 o 691 0.35 Yes Yes
2005SN25 O C 2016-11-06.32321 1.000E-05 01:53:03.510 1.500E-01 0.500 F -0.319 -0.562 -14° 23' 59.30" 1.000E-01 0.500 F 0.150 -0.027 20.6 V 0.70 -0.09 o 691 1.13 Yes Yes
2009XZ1 O C 2016-11-06.32321 1.000E-05 01:54:07.460 1.500E-01 0.500 F -0.329 -0.125 -13° 48' 57.70" 1.000E-01 0.500 F 0.233 -0.245 20.6 V 0.70 -0.13 o 691 0.56 Yes Yes
2016UZ41 O C 2016-11-06.41738 1.000E-05 04:50:20.220 1.500E-01 0.500 F -0.180 -0.234 +18° 16' 06.10" 1.000E-01 0.500 F 0.257 -0.205 21.0 V 0.70 0.44 o 691 0.63 Yes Yes
1999JO6 O C 2016-11-06.41738 1.000E-05 04:49:19.050 1.500E-01 0.500 F -0.223 0.124 +19° 14' 54.70" 1.000E-01 0.500 F 0.221 0.108 19.7 V 0.70 -0.12 o 691 0.33 Yes Yes
2016WJ1 O C 2016-11-06.42435 1.000E-05 04:43:29.190 1.500E-01 0.500 F -0.137 -0.134 +16° 45' 08.70" 1.000E-01 0.500 F 0.355 -0.018 20.3 V 0.70 -0.42 o 691 0.27 Yes Yes
1999JO6 O C 2016-11-06.43595 1.000E-05 04:49:17.370 1.500E-01 0.500 F -0.223 -0.150 +19° 15' 05.80" 1.000E-01 0.500 F 0.221 -0.035 19.9 V 0.70 0.08 o 691 0.31 Yes Yes
2016UZ41 O C 2016-11-06.43595 1.000E-05 04:50:17.410 1.500E-01 0.500 F -0.180 -0.103 +18° 16' 26.20" 1.000E-01 0.500 F 0.257 -0.149 20.5 V 0.70 -0.06 o 691 0.37 Yes Yes
2016WJ1 O C 2016-11-06.44292 1.000E-05 04:43:28.570 1.500E-01 0.500 F -0.137 -0.230 +16° 45' 05.30" 1.000E-01 0.500 F 0.355 0.169 20.3 V 0.70 -0.42 o 691 0.57 Yes Yes
2016UZ41 O C 2016-11-06.45451 1.000E-05 04:50:14.580 1.500E-01 0.500 F -0.180 -0.341 +18° 16' 46.20" 1.000E-01 0.500 F 0.257 -0.113 20.4 V 0.70 -0.16 o 691 0.74 Yes Yes
1999JO6 O C 2016-11-06.45451 1.000E-05 04:49:15.730 1.500E-01 0.500 F -0.223 0.113 +19° 15' 16.90" 1.000E-01 0.500 F 0.221 -0.148 19.8 V 0.70 -0.02 o 691 0.37 Yes Yes
2016WJ1 O C 2016-11-06.46148 1.000E-05 04:43:27.970 1.500E-01 0.500 F -0.137 -0.129 +16° 45' 01.30" 1.000E-01 0.500 F 0.355 -0.166 20.5 V 0.70 -0.22 o 691 0.42 Yes Yes
2016VG2 O C H 2016-11-06.51569 1.000E-05 09:22:43.800 1.500E-01 0.500 F 0.113 -0.475 +00° 45' 39.60" 1.000E-01 0.500 F 0.227 -1.005 20.4 V 0.70 -0.49 o 691 2.24 Yes Yes
1996AW1 O C H 2016-11-06.51785 1.000E-05 09:23:47.120 1.500E-01 0.500 F 0.195 -0.126 +03° 50' 05.70" 1.000E-01 0.500 F 0.173 0.987 21.0 V 0.70 0.60 o 691 1.99 Yes Yes
2016VG2 O C H 2016-11-06.52001 1.000E-05 09:22:45.670 1.500E-01 0.500 F 0.113 0.604 +00° 45' 34.40" 1.000E-01 0.500 F 0.227 0.582 21.0 V 0.70 0.11 o 691 1.69 Yes Yes
1996AW1 O C H 2016-11-06.52217 1.000E-05 09:23:46.800 1.500E-01 0.500 F 0.195 0.078 +03° 50' 08.00" 1.000E-01 0.500 F 0.173 -0.197 20.8 V 0.70 0.40 o 691 0.42 Yes Yes
2016VG2 O C H 2016-11-06.52433 1.000E-05 09:22:47.480 1.500E-01 0.500 F 0.113 0.784 +00° 45' 25.80" 1.000E-01 0.500 F 0.227 -1.229 20.3 V 0.70 -0.59 o 691 2.93 Yes Yes
1996AW1 O C H 2016-11-06.52650 1.000E-05 09:23:46.430 1.500E-01 0.500 F 0.195 -0.449 +03° 50' 12.00" 1.000E-01 0.500 F 0.173 0.313 20.7 V 0.70 0.30 o 691 1.10 Yes Yes
2001TN41 O C 2016-11-07.14838 1.000E-05 03:10:16.970 1.500E-01 0.500 F -0.193 1.192 +08° 30' 55.80" 1.000E-01 0.500 F 0.300 1.900 18.1 V 0.70 -0.06 o 691 4.47 No Yes
2001TN41 O C 2016-11-07.15463 1.000E-05 03:10:16.030 1.500E-01 0.500 F -0.193 -0.085 +08° 30' 55.50" 1.000E-01 0.500 F 0.300 -0.324 18.7 V 0.70 0.54 o 691 0.67 Yes Yes
2001TN41 O C 2016-11-07.16091 1.000E-05 03:10:15.180 1.500E-01 0.500 F -0.193 0.045 +08° 30' 57.50" 1.000E-01 0.500 F 0.300 -0.257 18.8 V 0.70 0.64 o 691 0.52 Yes Yes
2016LZ10 O C 2016-11-07.18175 1.000E-05 23:49:40.940 1.500E-01 0.500 F -0.156 -1.060 +02° 12' 10.50" 1.000E-01 0.500 F 0.294 -0.551 20.8 V 0.70 0.01 o 691 2.40 Yes Yes
2016LZ10 O C 2016-11-07.18922 1.000E-05 23:49:41.900 1.500E-01 0.500 F -0.156 -0.056 +02° 12' 12.10" 1.000E-01 0.500 F 0.294 0.047 20.7 V 0.70 -0.09 o 691 0.15 Yes Yes
2016LZ10 O C 2016-11-07.19679 1.000E-05 23:49:42.820 1.500E-01 0.500 F -0.156 0.168 +02° 12' 13.20" 1.000E-01 0.500 F 0.294 0.131 20.7 V 0.70 -0.09 o 691 0.43 Yes Yes
2016VE2 O C 2016-11-07.20450 1.000E-05 00:13:23.930 1.500E-01 0.500 F -0.264 -0.737 -08° 42' 22.50" 1.000E-01 0.500 F 0.270 -0.560 20.4 V 0.70 -0.25 o 691 1.88 Yes Yes
2016VE2 O C 2016-11-07.21307 1.000E-05 00:13:24.000 1.500E-01 0.500 F -0.264 -0.200 -08° 42' 02.20" 1.000E-01 0.500 F 0.270 -0.294 20.5 V 0.70 -0.15 o 691 0.72 Yes Yes
2016VE2 O C 2016-11-07.22166 1.000E-05 00:13:24.020 1.500E-01 0.500 F -0.264 -0.413 -08° 41' 41.80" 1.000E-01 0.500 F 0.270 0.024 20.4 V 0.70 -0.25 o 691 0.84 Yes Yes
2016TY92 O C 2016-11-07.23986 1.000E-05 00:36:58.670 1.500E-01 0.500 F -0.375 -0.641 -21° 20' 32.50" 1.000E-01 0.500 F 0.095 0.009 20.8 V 0.70 -0.14 o 691 1.29 Yes Yes
2016TY92 O C 2016-11-07.25007 1.000E-05 00:36:57.830 1.500E-01 0.500 F -0.375 -0.141 -21° 20' 29.00" 1.000E-01 0.500 F 0.095 -0.221 21.1 V 0.70 0.16 o 691 0.53 Yes Yes
2016TY92 O C 2016-11-07.26026 1.000E-05 00:36:56.960 1.500E-01 0.500 F -0.375 -0.101 -21° 20' 25.00" 1.000E-01 0.500 F 0.095 0.035 21.5 V 0.70 0.56 o 691 0.22 Yes Yes
2016VL3 O C 2016-11-07.37138 1.000E-05 03:54:59.780 1.500E-01 0.500 F -0.150 -0.244 +17° 26' 03.90" 1.000E-01 0.500 F 0.137 -0.169 20.8 V 0.70 -0.25 o 691 0.60 Yes Yes
2016VL3 O C 2016-11-07.38990 1.000E-05 03:54:59.590 1.500E-01 0.500 F -0.150 -0.467 +17° 26' 22.00" 1.000E-01 0.500 F 0.137 0.337 21.6 V 0.70 0.56 o 691 1.18 Yes Yes
2016VL3 O C 2016-11-07.40842 1.000E-05 03:54:59.410 1.500E-01 0.500 F -0.150 -0.756 +17° 26' 38.70" 1.000E-01 0.500 F 0.137 -0.342 20.8 V 0.70 -0.24 o 691 1.69 Yes Yes
2016UN36 O C 2016-11-08.16513 1.000E-05 00:45:23.060 1.500E-01 0.500 F -0.183 -0.247 +26° 01' 44.80" 1.000E-01 0.500 F 0.325 0.423 20.0 V 0.70 -0.46 o 691 0.98 Yes Yes
2016UN36 O C 2016-11-08.18276 1.000E-05 00:45:24.840 1.500E-01 0.500 F -0.183 -0.116 +26° 02' 01.10" 1.000E-01 0.500 F 0.325 0.204 20.2 V 0.70 -0.26 o 691 0.47 Yes Yes
2016UN36 O C 2016-11-08.20044 1.000E-05 00:45:26.600 1.500E-01 0.500 F -0.183 -0.204 +26° 02' 17.20" 1.000E-01 0.500 F 0.325 0.158 20.0 V 0.70 -0.45 o 691 0.52 Yes Yes
2005XL80 O C 2016-11-08.37450 1.000E-05 02:44:52.300 1.500E-01 0.500 F -0.233 0.148 +12° 43' 50.50" 1.000E-01 0.500 F 0.188 -0.470 20.9 V 0.70 0.00 o 691 0.99 Yes Yes
2005XL80 O C 2016-11-08.38649 1.000E-05 02:44:51.070 1.500E-01 0.500 F -0.233 -0.635 +12° 43' 48.50" 1.000E-01 0.500 F 0.188 -0.157 21.0 V 0.70 0.10 o 691 1.31 Yes Yes
2005XL80 O C 2016-11-08.39844 1.000E-05 02:44:49.860 1.500E-01 0.500 F -0.233 -1.200 +12° 43' 46.30" 1.000E-01 0.500 F 0.188 -0.046 20.9 V 0.70 0.00 o 691 2.41 Yes Yes
2016VZ3 O C H 2016-11-09.23659 1.000E-05 04:06:15.660 1.500E-01 0.500 F -0.222 0.252 -07° 28' 07.30" 1.000E-01 0.500 F 0.141 -0.289 18.8 V 0.70 0.47 o 691 0.77 Yes Yes
2016VZ3 O C H 2016-11-09.23819 1.000E-05 04:06:14.500 1.500E-01 0.500 F -0.222 0.438 -07° 27' 40.90" 1.000E-01 0.500 F 0.141 -0.735 18.5 V 0.70 0.17 o 691 1.72 Yes Yes
2001FZ6 O C 2016-11-09.25165 1.000E-05 01:24:53.190 1.500E-01 0.500 F -0.165 0.093 +22° 10' 03.80" 1.000E-01 0.500 F 0.326 -0.188 18.4 V 0.70 0.06 o 691 0.42 Yes Yes
2001FZ6 O C 2016-11-09.25602 1.000E-05 01:24:52.820 1.500E-01 0.500 F -0.165 -0.176 +22° 10' 05.00" 1.000E-01 0.500 F 0.326 0.073 18.5 V 0.70 0.16 o 691 0.38 Yes Yes
2001FZ6 O C 2016-11-09.26041 1.000E-05 01:24:52.470 1.500E-01 0.500 F -0.165 -0.147 +22° 10' 05.90" 1.000E-01 0.500 F 0.326 0.035 18.5 V 0.70 0.16 o 691 0.30 Yes Yes
2016UN36 O C 2016-11-09.30247 1.000E-05 00:48:01.710 1.500E-01 0.500 F -0.183 0.158 +26° 18' 43.40" 1.000E-01 0.500 F 0.325 -0.519 20.2 V 0.70 -0.20 o 691 1.09 Yes Yes
2016UN36 O C 2016-11-09.30476 1.000E-05 00:48:01.960 1.500E-01 0.500 F -0.183 -0.163 +26° 18' 45.60" 1.000E-01 0.500 F 0.325 -0.113 20.1 V 0.70 -0.30 o 691 0.40 Yes Yes
2016UN36 O C 2016-11-09.30709 1.000E-05 00:48:02.240 1.500E-01 0.500 F -0.183 -0.156 +26° 18' 47.70" 1.000E-01 0.500 F 0.325 0.168 20.1 V 0.70 -0.30 o 691 0.46 Yes Yes
2016UY56 O C 2016-11-10.15191 1.000E-05 01:53:21.210 1.500E-01 0.500 F -0.370 -0.205 +16° 49' 31.90" 1.000E-01 0.500 F 0.304 -0.115 18.9 V 0.70 0.17 o 691 0.47 Yes Yes
2016LY47 O C 2016-11-10.15393 1.000E-05 01:48:00.370 1.500E-01 0.500 F -0.350 -0.021 +18° 20' 43.60" 1.000E-01 0.500 F 0.331 0.091 20.5 V 0.70 0.23 o 691 0.19 Yes Yes
2016UY56 O C 2016-11-10.16308 1.000E-05 01:53:14.790 1.500E-01 0.500 F -0.370 -0.374 +16° 49' 13.10" 1.000E-01 0.500 F 0.304 -0.118 18.4 V 0.70 -0.33 o 691 0.79 Yes Yes
2016LY47 O C 2016-11-10.16511 1.000E-05 01:48:00.290 1.500E-01 0.500 F -0.350 -0.171 +18° 20' 35.90" 1.000E-01 0.500 F 0.331 0.274 20.2 V 0.70 -0.07 o 691 0.65 Yes Yes
2016UY56 O C 2016-11-10.17429 1.000E-05 01:53:08.350 1.500E-01 0.500 F -0.349 0.038 +16° 48' 54.10" 1.000E-01 0.500 F 0.298 -0.030 18.5 V 0.70 -0.23 o 691 0.10 Yes Yes
2016LY47 O C 2016-11-10.17633 1.000E-05 01:48:00.240 1.500E-01 0.500 F -0.350 0.138 +18° 20' 27.60" 1.000E-01 0.500 F 0.331 -0.100 20.1 V 0.70 -0.17 o 691 0.34 Yes Yes
2016LX48 O C 2016-11-10.18805 1.000E-05 01:40:28.160 1.500E-01 0.500 F -0.195 -0.118 +29° 33' 10.10" 1.000E-01 0.500 F 0.181 -0.110 18.9 V 0.70 -0.21 o 691 0.32 Yes Yes
2016LX48 O C 2016-11-10.20155 1.000E-05 01:40:28.610 1.500E-01 0.500 F -0.195 0.043 +29° 32' 59.40" 1.000E-01 0.500 F 0.181 -0.092 18.9 V 0.70 -0.21 o 691 0.20 Yes Yes
2016LX48 O C 2016-11-10.21537 1.000E-05 01:40:29.060 1.500E-01 0.500 F -0.195 0.100 +29° 32' 48.50" 1.000E-01 0.500 F 0.181 0.039 19.1 V 0.70 -0.01 o 691 0.21 Yes Yes
2003GY O C 2016-11-10.35462 1.000E-05 02:13:42.770 1.500E-01 0.500 F -0.098 -0.346 +30° 08' 45.80" 1.000E-01 0.500 F 0.208 0.151 19.9 V 0.70 0.26 o 691 0.76 Yes Yes
2003GY O C 2016-11-10.36427 1.000E-05 02:13:41.740 1.500E-01 0.500 F -0.098 -0.509 +30° 08' 35.20" 1.000E-01 0.500 F 0.208 -0.143 19.9 V 0.70 0.26 o 691 1.06 Yes Yes
2003GY O C 2016-11-10.37392 1.000E-05 02:13:40.730 1.500E-01 0.500 F -0.098 -0.457 +30° 08' 24.70" 1.000E-01 0.500 F 0.208 -0.310 20.0 V 0.70 0.36 o 691 1.11 Yes Yes
Tara O C 2016-11-11.11102 1.000E-05 21:08:28.970 1.500E-01 0.500 F -0.090 -0.238 -20° 06' 16.40" 1.000E-01 0.500 F 0.051 0.165 o 691 0.58 Yes No
Tara O C 2016-11-11.12100 1.000E-05 21:08:31.150 1.500E-01 0.500 F -0.090 -0.313 -20° 06' 15.80" 1.000E-01 0.500 F 0.051 -0.052 o 691 0.64 Yes No
Tara O C 2016-11-11.13098 1.000E-05 21:08:33.340 1.500E-01 0.500 F -0.090 -0.255 -20° 06' 14.90" 1.000E-01 0.500 F 0.051 0.021 o 691 0.51 Yes No
2016VR1 O C 2016-11-11.34599 1.000E-05 03:52:12.830 1.500E-01 0.500 F -0.194 -0.102 +16° 57' 57.90" 1.000E-01 0.500 F 0.201 -0.336 o 691 0.71 Yes No
2016VR1 O C 2016-11-11.35755 1.000E-05 03:52:14.230 1.500E-01 0.500 F -0.194 -0.258 +16° 58' 05.20" 1.000E-01 0.500 F 0.201 -0.139 o 691 0.60 Yes No
2016VR1 O C 2016-11-11.36922 1.000E-05 03:52:15.660 1.500E-01 0.500 F -0.194 -0.206 +16° 58' 12.50" 1.000E-01 0.500 F 0.201 0.047 o 691 0.43 Yes No
2010CG18 O C 2016-11-11.41353 1.000E-05 08:07:31.900 1.500E-01 0.500 F 0.014 -0.338 +10° 02' 39.00" 1.000E-01 0.500 F -0.041 -0.411 o 691 1.07 Yes No
2010CG18 O C 2016-11-11.42508 1.000E-05 08:07:34.320 1.500E-01 0.500 F 0.014 -0.547 +10° 02' 53.80" 1.000E-01 0.500 F -0.041 -0.174 o 691 1.16 Yes No
2010CG18 O C 2016-11-11.43661 1.000E-05 08:07:36.780 1.500E-01 0.500 F 0.014 -0.037 +10° 03' 08.30" 1.000E-01 0.500 F -0.041 -0.195 o 691 0.40 Yes No
1996AW1 O C 2016-11-11.44747 1.000E-05 09:18:05.190 1.500E-01 0.500 F 0.159 -0.183 +04° 55' 11.60" 1.000E-01 0.500 F 0.170 0.034 o 691 0.37 Yes No
2016NQ32 O C 2016-11-11.45488 1.000E-05 10:31:26.150 1.500E-01 0.500 F 0.194 -0.374 +00° 49' 24.50" 1.000E-01 0.500 F 0.212 -0.097 o 691 0.78 Yes No
1996AW1 O C 2016-11-11.45738 1.000E-05 09:18:04.370 1.500E-01 0.500 F 0.159 -0.893 +04° 55' 19.50" 1.000E-01 0.500 F 0.170 0.061 o 691 1.79 Yes No
2016NQ32 O C 2016-11-11.46482 1.000E-05 10:31:25.060 1.500E-01 0.500 F 0.194 -0.794 +00° 49' 21.60" 1.000E-01 0.500 F 0.212 -0.289 o 691 1.70 Yes No
1996AW1 O C 2016-11-11.46733 1.000E-05 09:18:03.640 1.500E-01 0.500 F 0.159 -0.162 +04° 55' 27.20" 1.000E-01 0.500 F 0.170 -0.137 o 691 0.42 Yes No
2016NQ32 O C 2016-11-11.47478 1.000E-05 10:31:24.040 1.500E-01 0.500 F 0.194 -0.027 +00° 49' 19.10" 1.000E-01 0.500 F 0.212 -0.074 o 691 0.16 Yes No
2007CA19 O C H 2016-11-12.07262 1.000E-05 20:45:58.290 1.500E-01 0.500 F 0.090 -1.344 -24° 02' 09.60" 1.000E-01 0.500 F 0.395 -0.294 19.5 V 0.70 0.34 o 691 2.80 Yes Yes
2007CA19 O C H 2016-11-12.08156 1.000E-05 20:46:02.970 1.500E-01 0.500 F 0.090 -0.447 -24° 01' 58.40" 1.000E-01 0.500 F 0.395 -0.033 19.7 V 0.70 0.53 o 691 0.91 Yes Yes
2007CA19 O C H 2016-11-12.09051 1.000E-05 20:46:07.640 1.500E-01 0.500 F 0.090 0.249 -24° 01' 47.20" 1.000E-01 0.500 F 0.395 0.195 19.5 V 0.70 0.33 o 691 0.64 Yes Yes
Tara O C 2016-11-12.13086 1.000E-05 21:12:13.770 1.500E-01 0.500 F -0.090 -0.319 -20° 04' 45.80" 1.000E-01 0.500 F 0.051 -0.320 19.1 V 0.70 0.57 o 691 0.91 Yes Yes
Tara O C 2016-11-12.13784 1.000E-05 21:12:15.290 1.500E-01 0.500 F -0.090 -0.225 -20° 04' 44.90" 1.000E-01 0.500 F 0.051 -0.184 18.9 V 0.70 0.37 o 691 0.58 Yes Yes
Tara O C 2016-11-12.14484 1.000E-05 21:12:16.820 1.500E-01 0.500 F -0.090 -0.057 -20° 04' 44.00" 1.000E-01 0.500 F 0.051 -0.054 18.8 V 0.70 0.27 o 691 0.16 Yes Yes
2012UA34 O C 2016-11-12.19822 1.000E-05 22:23:06.930 1.500E-01 0.500 F -0.097 0.067 +24° 05' 36.60" 1.000E-01 0.500 F 0.280 -0.178 19.2 V 0.70 0.05 o 691 0.39 Yes Yes
1999AQ10 O C H 2016-11-12.20064 1.000E-05 21:41:28.920 1.500E-01 0.500 F 0.058 0.678 +24° 22' 43.10" 1.000E-01 0.500 F 0.335 -0.306 19.6 V 0.70 0.27 o 691 1.49 Yes Yes
2012UA34 O C 2016-11-12.20990 1.000E-05 22:23:10.340 1.500E-01 0.500 F -0.097 -0.106 +24° 05' 13.30" 1.000E-01 0.500 F 0.280 0.111 19.0 V 0.70 -0.15 o 691 0.30 Yes Yes
2012UA34 O C 2016-11-12.22158 1.000E-05 22:23:13.750 1.500E-01 0.500 F -0.097 -0.320 +24° 04' 49.50" 1.000E-01 0.500 F 0.280 -0.080 19.5 V 0.70 0.35 o 691 0.65 Yes Yes
1999AQ10 O C H 2016-11-12.22398 1.000E-05 21:41:37.200 1.500E-01 0.500 F 0.058 1.134 +24° 22' 44.40" 1.000E-01 0.500 F 0.335 -0.381 20.2 V 0.70 0.87 o 691 2.40 Yes Yes
2016UN36 O C 2016-11-12.25974 1.000E-05 00:56:32.620 1.500E-01 0.500 F -0.093 -0.534 +27° 05' 23.90" 1.000E-01 0.500 F 0.299 0.080 19.8 V 0.70 -0.46 o 691 1.08 Yes Yes
2016UN36 O C 2016-11-12.26999 1.000E-05 00:56:34.220 1.500E-01 0.500 F -0.093 -0.517 +27° 05' 32.90" 1.000E-01 0.500 F 0.299 0.012 19.9 V 0.70 -0.35 o 691 1.04 Yes Yes
2016UN36 O C 2016-11-12.28020 1.000E-05 00:56:35.840 1.500E-01 0.500 F -0.093 -0.311 +27° 05' 41.80" 1.000E-01 0.500 F 0.299 0.031 19.7 V 0.70 -0.55 o 691 0.63 Yes Yes
2016VU3 O C 2016-11-12.29813 1.000E-05 02:42:02.570 1.500E-01 0.500 F -0.246 -0.152 -24° 58' 28.80" 1.000E-01 0.500 F 0.334 -0.470 20.0 V 0.70 0.09 o 691 1.00 Yes Yes
2016VU3 O C 2016-11-12.30970 1.000E-05 02:42:00.710 1.500E-01 0.500 F -0.246 -0.127 -24° 59' 16.70" 1.000E-01 0.500 F 0.334 0.471 20.1 V 0.70 0.19 o 691 0.99 Yes Yes
2016VU3 O C 2016-11-12.32124 1.000E-05 02:41:58.830 1.500E-01 0.500 F -0.246 -0.449 -25° 00' 06.40" 1.000E-01 0.500 F 0.334 -0.554 20.0 V 0.70 0.10 o 691 1.45 Yes Yes
2003WR21 O C 2016-11-12.33153 1.000E-05 02:36:09.560 1.500E-01 0.500 F -0.241 -0.182 -07° 27' 21.00" 1.000E-01 0.500 F 0.355 -0.305 19.3 V 0.70 0.26 o 691 0.71 Yes Yes
2003WR21 O C 2016-11-12.34923 1.000E-05 02:36:06.410 1.500E-01 0.500 F -0.241 0.119 -07° 27' 18.20" 1.000E-01 0.500 F 0.355 -0.247 19.5 V 0.70 0.46 o 691 0.55 Yes Yes
2003WR21 O C 2016-11-12.36696 1.000E-05 02:36:03.210 1.500E-01 0.500 F -0.241 -0.358 -07° 27' 15.30" 1.000E-01 0.500 F 0.355 -0.137 19.3 V 0.70 0.26 o 691 0.77 Yes Yes
2001KP41 O C 2016-11-12.41255 1.000E-05 04:49:22.190 1.500E-01 0.500 F -0.081 -0.255 +05° 59' 09.60" 1.000E-01 0.500 F 0.092 0.178 19.9 V 0.70 0.33 o 691 0.62 Yes Yes
2007VM184 O C H 2016-11-12.41489 1.000E-05 04:44:48.160 1.500E-01 0.500 F -0.159 0.018 -04° 13' 20.90" 1.000E-01 0.500 F -0.050 0.151 19.7 V 0.70 0.11 o 691 0.30 Yes Yes
2001KP41 O C 2016-11-12.42285 1.000E-05 04:49:21.550 1.500E-01 0.500 F -0.081 -0.188 +05° 59' 07.50" 1.000E-01 0.500 F 0.092 0.017 20.0 V 0.70 0.43 o 691 0.38 Yes Yes
2007VM184 O C H 2016-11-12.42519 1.000E-05 04:44:46.370 1.500E-01 0.500 F -0.159 -0.166 -04° 13' 15.50" 1.000E-01 0.500 F -0.050 0.180 19.7 V 0.70 0.11 o 691 0.49 Yes Yes
2001KP41 O C 2016-11-12.43320 1.000E-05 04:49:20.910 1.500E-01 0.500 F -0.081 -0.078 +05° 59' 05.50" 1.000E-01 0.500 F 0.092 -0.033 20.4 V 0.70 0.83 o 691 0.17 Yes Yes
2007VM184 O C H 2016-11-12.43553 1.000E-05 04:44:44.610 1.500E-01 0.500 F -0.159 0.182 -04° 13' 10.30" 1.000E-01 0.500 F -0.050 -0.031 19.6 V 0.70 0.01 o 691 0.37 Yes Yes
2010CG18 O C 2016-11-12.51057 1.000E-05 08:11:31.890 1.500E-01 0.500 F 0.044 0.317 +10° 25' 42.20" 1.000E-01 0.500 F 0.009 0.026 20.2 V 0.70 -0.04 o 691 0.64 Yes Yes
2010CG18 O C 2016-11-12.51742 1.000E-05 08:11:33.290 1.500E-01 0.500 F 0.044 -0.121 +10° 25' 50.60" 1.000E-01 0.500 F 0.009 -0.285 20.5 V 0.70 0.26 o 691 0.62 Yes Yes
2010CG18 O C 2016-11-12.52438 1.000E-05 08:11:34.790 1.500E-01 0.500 F 0.044 0.576 +10° 25' 59.30" 1.000E-01 0.500 F 0.009 -0.428 20.2 V 0.70 -0.04 o 691 1.44 Yes Yes
2015YE18 O C 2016-11-12.52947 1.000E-05 10:55:10.500 1.500E-01 0.500 F 0.235 0.039 -02° 52' 19.80" 1.000E-01 0.500 F 0.097 0.061 19.3 V 0.70 -0.03 o 691 0.15 Yes Yes
2016LE9 O C H 2016-11-12.53146 1.000E-05 11:52:57.040 1.500E-01 0.500 F 0.079 -0.346 -11° 45' 44.20" 1.000E-01 0.500 F 0.047 0.024 20.1 V 0.70 0.00 o 691 0.69 Yes Yes
2015YE18 O C 2016-11-12.53345 1.000E-05 10:55:10.210 1.500E-01 0.500 F 0.235 -0.319 -02° 52' 31.60" 1.000E-01 0.500 F 0.097 0.175 19.5 V 0.70 0.17 o 691 0.73 Yes Yes
2016LE9 O C H 2016-11-12.53544 1.000E-05 11:52:57.510 1.500E-01 0.500 F 0.079 0.102 -11° 45' 47.80" 1.000E-01 0.500 F 0.047 0.326 20.1 V 0.70 0.00 o 691 0.68 Yes Yes
2015YE18 O C 2016-11-12.53743 1.000E-05 10:55:09.940 1.500E-01 0.500 F 0.235 -0.374 -02° 52' 43.40" 1.000E-01 0.500 F 0.097 0.289 19.7 V 0.70 0.37 o 691 0.95 Yes Yes
2016LE9 O C H 2016-11-12.53942 1.000E-05 11:52:57.970 1.500E-01 0.500 F 0.079 0.406 -11° 45' 51.50" 1.000E-01 0.500 F 0.047 0.526 19.7 V 0.70 -0.40 o 691 1.33 Yes Yes
2016SH45 O C H 2016-11-18.11087 1.000E-05 23:00:41.060 1.500E-01 0.500 F -0.192 0.248 -28° 01' 14.40" 1.000E-01 0.500 F 0.308 0.248 20.4 V 0.70 0.17 o 691 0.71 Yes Yes
2016SH45 O C H 2016-11-18.12058 1.000E-05 23:00:43.560 1.500E-01 0.500 F -0.192 0.663 -28° 00' 53.50" 1.000E-01 0.500 F 0.308 0.072 20.3 V 0.70 0.07 o 691 1.36 Yes Yes
2016UB42 O C H 2016-11-18.12782 1.000E-05 23:12:48.410 1.500E-01 0.500 F -0.061 -0.255 +25° 14' 30.80" 1.000E-01 0.500 F 0.257 0.860 21.1 V 0.70 0.25 o 691 1.80 Yes Yes
2016UB42 O C H 2016-11-18.13933 1.000E-05 23:12:47.820 1.500E-01 0.500 F -0.061 -0.199 +25° 15' 02.30" 1.000E-01 0.500 F 0.257 -0.404 21.1 V 0.70 0.25 o 691 0.91 Yes Yes
2016UB42 O C H 2016-11-18.15118 1.000E-05 23:12:47.210 1.500E-01 0.500 F -0.061 -0.202 +25° 15' 36.30" 1.000E-01 0.500 F 0.257 -0.081 21.2 V 0.70 0.35 o 691 0.44 Yes Yes
1998VR O C 2016-11-18.16036 1.000E-05 00:13:48.660 1.500E-01 0.500 F -0.220 -0.415 +02° 30' 15.60" 1.000E-01 0.500 F 0.393 -0.046 17.7 V 0.70 0.16 o 691 0.84 Yes Yes
2016LZ10 O C H 2016-11-18.16036 1.000E-05 00:11:38.410 1.500E-01 0.500 F -0.160 0.388 +02° 49' 19.60" 1.000E-01 0.500 F 0.292 -0.466 o 691 1.22 Yes No
2016UM41 O C H 2016-11-18.17060 1.000E-05 00:43:22.460 1.500E-01 0.500 F -0.215 0.095 +16° 16' 16.70" 1.000E-01 0.500 F 0.397 0.334 o 691 0.72 Yes No
2016LZ10 O C H 2016-11-18.17355 1.000E-05 00:11:39.930 1.500E-01 0.500 F -0.160 1.273 +02° 49' 23.10" 1.000E-01 0.500 F 0.292 -0.456 o 691 2.72 Yes No
1998VR O C 2016-11-18.17355 1.000E-05 00:13:45.370 1.500E-01 0.500 F -0.220 -0.409 +02° 30' 57.80" 1.000E-01 0.500 F 0.393 0.096 17.8 V 0.70 0.26 o 691 0.84 Yes Yes

[1-200] [201-400] [401-600] [601-800] [801-1000] [1001-1200] [1201-1400] [1401-1600] [1601-1800] [1801-2000] [2001-2200] [2201-2400] [2401-2600] [2601-2800] [2801-3000] [3001-3200] [3201-3400] [3401-3600] [3601-3800] [3801-4000] [4001-4200] [4201-4400] [4401-4600] [4601-4800] [4801-5000] [5001-5200] [5201-5400] [5401-5600] [5601-5800] [5801-6000] [6001-6200] [6201-6400] [6401-6600] [6601-6800] [6801-7000] [7001-7200] [7201-7400] [7401-7600] [7601-7800] [7801-8000] [8001-8200] [8201-8400] [8401-8600] [8601-8800] [8801-9000] [9001-9200] [9201-9400] [9401-9600] [9601-9800] [9801-10000] [10001-10200] [10201-10400] [10401-10600] [10601-10800] [10801-11000] [11001-11200] [11201-11400] [11401-11600] [11601-11800] [11801-12000] [12001-12200] [12201-12400] [12401-12600] [12601-12800] [12801-13000] [13001-13200] [13201-13400] [13401-13600] [13601-13800] [13801-14000] [14001-14200] [14201-14400] [14401-14600] [14601-14800] [14801-15000] [15001-15200] [15201-15400] [15401-15600] [15601-15800] [15801-16000] [16001-16200] [16201-16400] [16401-16600] [16601-16800] [16801-17000] [17001-17200] [17201-17400] [17401-17600] [17601-17800] [17801-18000] [18001-18200] [18201-18400] [18401-18600] [18601-18800] [18801-19000] [19001-19200] [19201-19400] [19401-19600] [19601-19800] [19801-20000] [20001-20200] [20201-20400] [20401-20600] [20601-20800] [20801-21000] [21001-21200] [21201-21400] [21401-21600] [21601-21800] [21801-22000] [22001-22200] [22201-22400] [22401-22600] [22601-22800] [22801-23000] [23001-23200] [23201-23400] [23401-23600] [23601-23800] [23801-24000] [24001-24200] [24201-24400] [24401-24600] [24601-24800] [24801-25000] [25001-25200] [25201-25400] [25401-25600] [25601-25800] [25801-26000] [26001-26200] [26201-26400] [26401-26600] [26601-26800] [26801-27000] [27001-27200] [27201-27400] [27401-27600] [27601-27800] [27801-28000] [28001-28200] [28201-28400] [28401-28600] [28601-28800] [28801-29000] [29001-29200] [29201-29400] [29401-29600] [29601-29800] [29801-30000] [30001-30200] [30201-30400] [30401-30600] [30601-30800] [30801-31000] [31001-31200] [31201-31400] [31401-31600] [31601-31800] [31801-32000] [32001-32200] [32201-32400] [32401-32600] [32601-32800] [32801-33000] [33001-33200] [33201-33400] [33401-33600] [33601-33800] [33801-34000] [34001-34200] [34201-34400] [34401-34600] [34601-34800] [34801-35000] [35001-35200] [35201-35400] [35401-35600] [35601-35800] [35801-36000] [36001-36200] [36201-36400] [36401-36600] [36601-36800] [36801-37000] [37001-37200] [37201-37400] [37401-37600] [37601-37800] [37801-38000] [38001-38200] [38201-38400] [38401-38600] [38601-38800] [38801-39000] [39001-39200] [39201-39400] [39401-39600] [39601-39800] [39801-40000] [40001-40200] [40201-40400] [40401-40600] [40601-40800] [40801-41000] [41001-41200] [41201-41400] [41401-41600] [41601-41800] [41801-42000] [42001-42200] [42201-42400] [42401-42600] [42601-42800] [42801-43000] [43001-43200] [43201-43400] [43401-43600] [43601-43800] [43801-44000] [44001-44200] [44201-44400] [44401-44600] [44601-44800] [44801-45000] [45001-45200] [45201-45400] [45401-45600] [45601-45800] [45801-46000] [46001-46200] [46201-46400] [46401-46600] [46601-46800] [46801-47000] [47001-47200] [47201-47400] [47401-47600] [47601-47800] [47801-48000] [48001-48200] [48201-48400] [48401-48600] [48601-48800] [48801-49000] [49001-49200] [49201-49400] [49401-49600] [49601-49800] [49801-50000] [50001-50200] [50201-50388]